sensor_id;sensor_type;location;lat;lon;timestamp;pressure;altitude;pressure_sealevel;temperature;humidity
43161;BME280;40968;52.342;5.528;2022-12-18T00:02:06;102821.09;;;-4.23;81.40
43161;BME280;40968;52.342;5.528;2022-12-18T00:04:36;102818.69;;;-4.12;81.51
43161;BME280;40968;52.342;5.528;2022-12-18T00:07:03;102523.25;;;-5.87;80.98
43161;BME280;40968;52.342;5.528;2022-12-18T00:09:30;102759.41;;;-4.56;81.02
43161;BME280;40968;52.342;5.528;2022-12-18T00:11:58;102749.88;;;-4.53;81.45
43161;BME280;40968;52.342;5.528;2022-12-18T00:14:24;102875.91;;;-3.87;81.32
43161;BME280;40968;52.342;5.528;2022-12-18T00:16:51;102855.84;;;-3.86;81.36
43161;BME280;40968;52.342;5.528;2022-12-18T00:19:18;102678.56;;;-4.88;81.25
43161;BME280;40968;52.342;5.528;2022-12-18T00:21:45;102766.53;;;-4.49;80.83
43161;BME280;40968;52.342;5.528;2022-12-18T00:24:12;102802.59;;;-4.33;81.25
43161;BME280;40968;52.342;5.528;2022-12-18T00:26:39;102767.31;;;-4.53;80.87
43161;BME280;40968;52.342;5.528;2022-12-18T00:29:10;102821.84;;;-4.30;80.89
43161;BME280;40968;52.342;5.528;2022-12-18T00:31:39;102777.09;;;-4.43;81.18
43161;BME280;40968;52.342;5.528;2022-12-18T00:34:06;102846.75;;;-4.07;81.39
43161;BME280;40968;52.342;5.528;2022-12-18T00:36:34;102595.22;;;-5.58;81.16
43161;BME280;40968;52.342;5.528;2022-12-18T00:39:03;102844.91;;;-4.12;81.57
43161;BME280;40968;52.342;5.528;2022-12-18T00:41:30;102822.56;;;-4.38;81.82
43161;BME280;40968;52.342;5.528;2022-12-18T00:44:17;102832.84;;;-4.47;81.59
43161;BME280;40968;52.342;5.528;2022-12-18T00:46:44;102833.13;;;-4.35;81.60
43161;BME280;40968;52.342;5.528;2022-12-18T00:49:13;102705.91;;;-5.15;81.80
43161;BME280;40968;52.342;5.528;2022-12-18T00:51:40;102808.28;;;-4.55;81.96
43161;BME280;40968;52.342;5.528;2022-12-18T00:54:07;102794.97;;;-4.68;81.80
43161;BME280;40968;52.342;5.528;2022-12-18T00:56:35;102793.97;;;-4.73;81.75
43161;BME280;40968;52.342;5.528;2022-12-18T00:59:02;102869.78;;;-4.35;81.65
43161;BME280;40968;52.342;5.528;2022-12-18T01:01:30;102859.19;;;-4.39;81.81
43161;BME280;40968;52.342;5.528;2022-12-18T01:03:57;102755.00;;;-5.02;81.93
43161;BME280;40968;52.342;5.528;2022-12-18T01:06:25;102792.09;;;-4.78;82.06
43161;BME280;40968;52.342;5.528;2022-12-18T01:08:51;102857.34;;;-4.45;81.80
43161;BME280;40968;52.342;5.528;2022-12-18T01:11:19;102794.72;;;-4.78;81.65
43161;BME280;40968;52.342;5.528;2022-12-18T01:13:46;102848.50;;;-4.50;81.81
43161;BME280;40968;52.342;5.528;2022-12-18T01:16:14;102601.34;;;-5.99;81.67
43161;BME280;40968;52.342;5.528;2022-12-18T01:18:42;102852.88;;;-4.51;82.29
43161;BME280;40968;52.342;5.528;2022-12-18T01:21:11;102851.97;;;-4.51;82.01
43161;BME280;40968;52.342;5.528;2022-12-18T01:23:37;102855.53;;;-4.49;82.20
43161;BME280;40968;52.342;5.528;2022-12-18T01:26:05;102852.00;;;-4.50;82.02
43161;BME280;40968;52.342;5.528;2022-12-18T01:28:32;102858.16;;;-4.47;82.01
43161;BME280;40968;52.342;5.528;2022-12-18T01:31:12;102837.84;;;-4.61;81.70
43161;BME280;40968;52.342;5.528;2022-12-18T01:33:40;102858.22;;;-4.44;81.69
43161;BME280;40968;52.342;5.528;2022-12-18T01:36:11;102852.13;;;-4.45;81.63
43161;BME280;40968;52.342;5.528;2022-12-18T01:38:40;102837.78;;;-4.62;81.66
43161;BME280;40968;52.342;5.528;2022-12-18T01:41:08;102796.25;;;-4.90;81.46
43161;BME280;40968;52.342;5.528;2022-12-18T01:43:48;102877.34;;;-4.47;81.40
43161;BME280;40968;52.342;5.528;2022-12-18T01:46:16;102605.53;;;-6.07;81.41
43161;BME280;40968;52.342;5.528;2022-12-18T01:48:44;102809.41;;;-4.85;81.62
43161;BME280;40968;52.342;5.528;2022-12-18T01:51:12;102584.47;;;-6.15;81.49
43161;BME280;40968;52.342;5.528;2022-12-18T01:53:41;102818.22;;;-4.80;81.51
43161;BME280;40968;52.342;5.528;2022-12-18T01:56:12;102873.72;;;-4.54;81.53
43161;BME280;40968;52.342;5.528;2022-12-18T01:58:44;102796.63;;;-5.11;81.52
43161;BME280;40968;52.342;5.528;2022-12-18T02:01:12;102888.47;;;-4.57;81.57
43161;BME280;40968;52.342;5.528;2022-12-18T02:03:41;102821.38;;;-4.96;81.68
43161;BME280;40968;52.342;5.528;2022-12-18T02:06:15;102800.16;;;-5.09;81.48
43161;BME280;40968;52.342;5.528;2022-12-18T02:08:48;102779.69;;;-5.28;81.32
43161;BME280;40968;52.342;5.528;2022-12-18T02:11:24;102875.63;;;-4.86;81.47
43161;BME280;40968;52.342;5.528;2022-12-18T02:14:00;102889.81;;;-4.78;81.67
43161;BME280;40968;52.342;5.528;2022-12-18T02:16:38;102905.63;;;-4.72;81.62
43161;BME280;40968;52.342;5.528;2022-12-18T02:19:12;102908.22;;;-4.72;81.55
43161;BME280;40968;52.342;5.528;2022-12-18T02:21:48;102919.56;;;-4.73;81.47
43161;BME280;40968;52.342;5.528;2022-12-18T02:24:28;102851.66;;;-5.06;81.62
43161;BME280;40968;52.342;5.528;2022-12-18T02:27:01;102861.53;;;-4.94;81.38
43161;BME280;40968;52.342;5.528;2022-12-18T02:29:32;102904.91;;;-4.64;81.33
43161;BME280;40968;52.342;5.528;2022-12-18T02:32:03;102912.75;;;-4.64;81.46
43161;BME280;40968;52.342;5.528;2022-12-18T02:34:33;102900.19;;;-4.81;81.22
43161;BME280;40968;52.342;5.528;2022-12-18T02:37:02;102921.53;;;-4.62;81.28
43161;BME280;40968;52.342;5.528;2022-12-18T02:39:32;102924.22;;;-4.59;80.88
43161;BME280;40968;52.342;5.528;2022-12-18T02:42:01;102863.53;;;-4.83;80.87
43161;BME280;40968;52.342;5.528;2022-12-18T02:44:33;102892.78;;;-4.61;80.78
43161;BME280;40968;52.342;5.528;2022-12-18T02:47:00;102834.28;;;-5.04;80.63
43161;BME280;40968;52.342;5.528;2022-12-18T02:49:32;102884.81;;;-4.66;80.50
43161;BME280;40968;52.342;5.528;2022-12-18T02:52:05;102870.09;;;-4.62;80.85
43161;BME280;40968;52.342;5.528;2022-12-18T02:54:48;102801.22;;;-5.01;80.22
43161;BME280;40968;52.342;5.528;2022-12-18T02:57:24;102856.06;;;-4.64;80.38
43161;BME280;40968;52.342;5.528;2022-12-18T03:00:00;102551.59;;;-6.45;80.19
43161;BME280;40968;52.342;5.528;2022-12-18T03:02:32;102855.19;;;-4.64;80.29
43161;BME280;40968;52.342;5.528;2022-12-18T03:05:05;102849.91;;;-4.68;79.88
43161;BME280;40968;52.342;5.528;2022-12-18T03:07:38;102846.34;;;-4.70;79.79
43161;BME280;40968;52.342;5.528;2022-12-18T03:10:09;102714.63;;;-5.54;79.44
43161;BME280;40968;52.342;5.528;2022-12-18T03:12:43;102789.72;;;-5.09;79.48
43161;BME280;40968;52.342;5.528;2022-12-18T03:15:14;102567.25;;;-6.45;79.32
43161;BME280;40968;52.342;5.528;2022-12-18T03:17:54;102589.13;;;-6.38;79.39
43161;BME280;40968;52.342;5.528;2022-12-18T03:20:24;102697.69;;;-5.73;79.38
43161;BME280;40968;52.342;5.528;2022-12-18T03:22:55;102842.38;;;-4.93;79.38
43161;BME280;40968;52.342;5.528;2022-12-18T03:25:25;102852.88;;;-4.90;79.20
43161;BME280;40968;52.342;5.528;2022-12-18T03:27:56;102851.91;;;-4.95;79.26
43161;BME280;40968;52.342;5.528;2022-12-18T03:30:28;102842.31;;;-4.96;79.24
43161;BME280;40968;52.342;5.528;2022-12-18T03:33:00;102843.13;;;-4.99;79.19
43161;BME280;40968;52.342;5.528;2022-12-18T03:35:31;102751.78;;;-5.68;78.92
43161;BME280;40968;52.342;5.528;2022-12-18T03:38:00;102730.19;;;-5.60;79.01
43161;BME280;40968;52.342;5.528;2022-12-18T03:40:31;102755.91;;;-5.41;79.23
43161;BME280;40968;52.342;5.528;2022-12-18T03:43:07;102833.38;;;-5.05;78.96
43161;BME280;40968;52.342;5.528;2022-12-18T03:45:38;102761.03;;;-5.44;78.98
43161;BME280;40968;52.342;5.528;2022-12-18T03:48:13;102815.88;;;-5.07;78.96
43161;BME280;40968;52.342;5.528;2022-12-18T03:50:46;102528.25;;;-6.75;78.86
43161;BME280;40968;52.342;5.528;2022-12-18T03:53:23;102803.72;;;-5.07;79.02
43161;BME280;40968;52.342;5.528;2022-12-18T03:55:55;102818.44;;;-5.10;79.15
43161;BME280;40968;52.342;5.528;2022-12-18T03:58:26;102772.47;;;-5.40;78.58
43161;BME280;40968;52.342;5.528;2022-12-18T04:00:56;102820.94;;;-5.15;78.65
43161;BME280;40968;52.342;5.528;2022-12-18T04:03:23;102798.13;;;-5.22;78.77
43161;BME280;40968;52.342;5.528;2022-12-18T04:05:51;102749.34;;;-5.60;78.66
43161;BME280;40968;52.342;5.528;2022-12-18T04:08:19;102513.03;;;-6.93;78.39
43161;BME280;40968;52.342;5.528;2022-12-18T04:10:47;102668.19;;;-6.07;78.79
43161;BME280;40968;52.342;5.528;2022-12-18T04:13:21;102711.38;;;-5.84;78.66
43161;BME280;40968;52.342;5.528;2022-12-18T04:15:49;102790.88;;;-5.36;78.89
43161;BME280;40968;52.342;5.528;2022-12-18T04:18:16;102791.69;;;-5.38;78.92
43161;BME280;40968;52.342;5.528;2022-12-18T04:20:43;102580.78;;;-6.61;78.70
43161;BME280;40968;52.342;5.528;2022-12-18T04:23:09;102701.69;;;-5.88;78.98
43161;BME280;40968;52.342;5.528;2022-12-18T04:25:36;102660.09;;;-6.18;78.76
43161;BME280;40968;52.342;5.528;2022-12-18T04:28:03;102721.88;;;-5.80;78.79
43161;BME280;40968;52.342;5.528;2022-12-18T04:30:29;102787.19;;;-5.44;78.67
43161;BME280;40968;52.342;5.528;2022-12-18T04:32:57;102681.13;;;-6.12;78.51
43161;BME280;40968;52.342;5.528;2022-12-18T04:35:24;102253.03;;;-8.50;78.27
43161;BME280;40968;52.342;5.528;2022-12-18T04:37:51;102771.38;;;-5.50;79.04
43161;BME280;40968;52.342;5.528;2022-12-18T04:40:18;102696.19;;;-6.00;78.75
43161;BME280;40968;52.342;5.528;2022-12-18T04:42:44;102783.56;;;-5.49;78.60
43161;BME280;40968;52.342;5.528;2022-12-18T04:45:11;102528.97;;;-7.16;78.51
43161;BME280;40968;52.342;5.528;2022-12-18T04:47:37;102479.91;;;-7.33;78.35
43161;BME280;40968;52.342;5.528;2022-12-18T04:50:06;102701.28;;;-6.06;78.36
43161;BME280;40968;52.342;5.528;2022-12-18T04:52:33;102686.22;;;-6.18;78.35
43161;BME280;40968;52.342;5.528;2022-12-18T04:55:00;102566.09;;;-6.91;78.22
43161;BME280;40968;52.342;5.528;2022-12-18T04:57:26;102710.94;;;-6.04;78.38
43161;BME280;40968;52.342;5.528;2022-12-18T04:59:53;102755.03;;;-5.78;78.50
43161;BME280;40968;52.342;5.528;2022-12-18T05:02:19;102826.31;;;-5.47;78.24
43161;BME280;40968;52.342;5.528;2022-12-18T05:04:46;102826.31;;;-5.47;78.23
43161;BME280;40968;52.342;5.528;2022-12-18T05:07:14;102828.09;;;-5.46;78.36
43161;BME280;40968;52.342;5.528;2022-12-18T05:09:40;102836.00;;;-5.43;78.18
43161;BME280;40968;52.342;5.528;2022-12-18T05:12:07;102832.47;;;-5.45;78.17
43161;BME280;40968;52.342;5.528;2022-12-18T05:14:34;102790.13;;;-5.67;78.86
43161;BME280;40968;52.342;5.528;2022-12-18T05:17:01;102782.97;;;-5.74;78.41
43161;BME280;40968;52.342;5.528;2022-12-18T05:19:27;102850.06;;;-5.38;77.87
43161;BME280;40968;52.342;5.528;2022-12-18T05:21:54;102572.72;;;-7.04;77.77
43161;BME280;40968;52.342;5.528;2022-12-18T05:24:22;102811.81;;;-5.71;77.47
43161;BME280;40968;52.342;5.528;2022-12-18T05:26:49;102742.84;;;-6.15;77.37
43161;BME280;40968;52.342;5.528;2022-12-18T05:29:15;102840.63;;;-5.68;77.52
43161;BME280;40968;52.342;5.528;2022-12-18T05:31:42;102583.81;;;-7.11;77.34
43161;BME280;40968;52.342;5.528;2022-12-18T05:34:09;102873.34;;;-5.47;77.48
43161;BME280;40968;52.342;5.528;2022-12-18T05:36:35;102764.59;;;-6.15;77.40
43161;BME280;40968;52.342;5.528;2022-12-18T05:39:02;102804.34;;;-5.90;77.25
43161;BME280;40968;52.342;5.528;2022-12-18T05:41:30;102734.56;;;-6.32;77.04
43161;BME280;40968;52.342;5.528;2022-12-18T05:43:58;102782.09;;;-6.11;76.92
43161;BME280;40968;52.342;5.528;2022-12-18T05:46:25;102785.03;;;-5.98;77.33
43161;BME280;40968;52.342;5.528;2022-12-18T05:48:51;102755.66;;;-6.25;76.88
43161;BME280;40968;52.342;5.528;2022-12-18T05:51:20;102482.34;;;-7.71;77.08
43161;BME280;40968;52.342;5.528;2022-12-18T05:53:48;102668.53;;;-6.63;77.44
43161;BME280;40968;52.342;5.528;2022-12-18T05:56:17;102410.25;;;-8.07;77.35
43161;BME280;40968;52.342;5.528;2022-12-18T05:58:46;102801.91;;;-5.84;77.29
43161;BME280;40968;52.342;5.528;2022-12-18T06:01:16;102701.00;;;-6.52;77.52
43161;BME280;40968;52.342;5.528;2022-12-18T06:03:43;102838.94;;;-5.66;77.46
43161;BME280;40968;52.342;5.528;2022-12-18T06:06:14;102831.94;;;-5.67;77.15
43161;BME280;40968;52.342;5.528;2022-12-18T06:08:41;102810.00;;;-5.73;77.36
43161;BME280;40968;52.342;5.528;2022-12-18T06:11:08;102711.19;;;-6.28;77.63
43161;BME280;40968;52.342;5.528;2022-12-18T06:13:34;102833.78;;;-5.62;77.52
43161;BME280;40968;52.342;5.528;2022-12-18T06:16:03;102748.84;;;-6.18;77.33
43161;BME280;40968;52.342;5.528;2022-12-18T06:18:30;102542.44;;;-7.33;77.17
43161;BME280;40968;52.342;5.528;2022-12-18T06:20:58;102818.88;;;-5.67;77.28
43161;BME280;40968;52.342;5.528;2022-12-18T06:23:25;102830.16;;;-5.68;76.89
43161;BME280;40968;52.342;5.528;2022-12-18T06:25:52;102780.69;;;-5.96;77.08
43161;BME280;40968;52.342;5.528;2022-12-18T06:28:19;102835.38;;;-5.68;77.34
43161;BME280;40968;52.342;5.528;2022-12-18T06:30:46;102815.31;;;-5.69;77.13
43161;BME280;40968;52.342;5.528;2022-12-18T06:33:15;102736.88;;;-6.10;77.18
43161;BME280;40968;52.342;5.528;2022-12-18T06:35:42;102804.88;;;-5.69;77.27
43161;BME280;40968;52.342;5.528;2022-12-18T06:38:08;102809.25;;;-5.68;77.42
43161;BME280;40968;52.342;5.528;2022-12-18T06:40:36;102493.53;;;-7.43;77.49
43161;BME280;40968;52.342;5.528;2022-12-18T06:43:04;102469.97;;;-7.47;77.88
43161;BME280;40968;52.342;5.528;2022-12-18T06:45:30;102457.81;;;-7.47;78.07
43161;BME280;40968;52.342;5.528;2022-12-18T06:47:57;102478.22;;;-7.30;77.99
43161;BME280;40968;52.342;5.528;2022-12-18T06:50:25;102661.84;;;-6.17;77.91
43161;BME280;40968;52.342;5.528;2022-12-18T06:52:52;102725.16;;;-5.89;77.72
43161;BME280;40968;52.342;5.528;2022-12-18T06:55:18;102774.78;;;-5.53;77.87
43161;BME280;40968;52.342;5.528;2022-12-18T06:57:45;102562.25;;;-6.71;78.05
43161;BME280;40968;52.342;5.528;2022-12-18T07:00:12;102503.19;;;-7.05;77.82
43161;BME280;40968;52.342;5.528;2022-12-18T07:02:39;102774.88;;;-5.48;78.14
43161;BME280;40968;52.342;5.528;2022-12-18T07:05:07;102766.22;;;-5.47;78.03
43161;BME280;40968;52.342;5.528;2022-12-18T07:07:35;102766.22;;;-5.47;77.98
43161;BME280;40968;52.342;5.528;2022-12-18T07:10:02;102770.59;;;-5.46;78.07
43161;BME280;40968;52.342;5.528;2022-12-18T07:12:29;102617.13;;;-6.32;77.86
43161;BME280;40968;52.342;5.528;2022-12-18T07:14:56;102723.69;;;-5.78;78.01
43161;BME280;40968;52.342;5.528;2022-12-18T07:17:22;102750.56;;;-5.45;77.99
43161;BME280;40968;52.342;5.528;2022-12-18T07:19:49;102586.50;;;-6.40;77.70
43161;BME280;40968;52.342;5.528;2022-12-18T07:22:15;102399.75;;;-7.43;77.67
43161;BME280;40968;52.342;5.528;2022-12-18T07:24:43;102756.63;;;-5.46;77.69
43161;BME280;40968;52.342;5.528;2022-12-18T07:27:10;102475.31;;;-7.08;77.38
43161;BME280;40968;52.342;5.528;2022-12-18T07:29:37;102757.53;;;-5.46;77.59
43161;BME280;40968;52.342;5.528;2022-12-18T07:32:04;102662.31;;;-5.98;77.95
43161;BME280;40968;52.342;5.528;2022-12-18T07:34:32;102462.19;;;-7.12;77.67
43161;BME280;40968;52.342;5.528;2022-12-18T07:36:58;102640.34;;;-6.07;77.93
43161;BME280;40968;52.342;5.528;2022-12-18T07:39:25;102641.94;;;-6.13;77.73
43161;BME280;40968;52.342;5.528;2022-12-18T07:41:53;102696.72;;;-5.77;77.66
43161;BME280;40968;52.342;5.528;2022-12-18T07:44:34;102577.03;;;-6.36;77.60
43161;BME280;40968;52.342;5.528;2022-12-18T07:47:00;102555.56;;;-6.61;77.64
43161;BME280;40968;52.342;5.528;2022-12-18T07:49:27;102415.91;;;-7.21;77.51
43161;BME280;40968;52.342;5.528;2022-12-18T07:51:54;102669.97;;;-5.67;77.53
43161;BME280;40968;52.342;5.528;2022-12-18T07:54:21;102711.53;;;-5.38;77.71
43161;BME280;40968;52.342;5.528;2022-12-18T07:56:48;102717.69;;;-5.36;77.77
43161;BME280;40968;52.342;5.528;2022-12-18T07:59:16;102713.44;;;-5.30;77.94
43161;BME280;40968;52.342;5.528;2022-12-18T08:01:43;102704.78;;;-5.28;77.91
43161;BME280;40968;52.342;5.528;2022-12-18T08:04:09;102289.69;;;-7.71;77.67
43161;BME280;40968;52.342;5.528;2022-12-18T08:06:36;102408.75;;;-6.93;77.76
43161;BME280;40968;52.342;5.528;2022-12-18T08:09:03;102681.19;;;-5.29;77.76
43161;BME280;40968;52.342;5.528;2022-12-18T08:11:29;102387.13;;;-6.89;77.83
43161;BME280;40968;52.342;5.528;2022-12-18T08:13:56;102607.31;;;-5.63;78.48
43161;BME280;40968;52.342;5.528;2022-12-18T08:16:25;102618.22;;;-5.42;77.97
43161;BME280;40968;52.342;5.528;2022-12-18T08:18:53;102694.06;;;-4.97;78.07
43161;BME280;40968;52.342;5.528;2022-12-18T08:21:21;102535.56;;;-5.81;78.08
43161;BME280;40968;52.342;5.528;2022-12-18T08:23:48;102430.09;;;-6.32;77.80
43161;BME280;40968;52.342;5.528;2022-12-18T08:26:15;102616.94;;;-5.18;77.86
43161;BME280;40968;52.342;5.528;2022-12-18T08:28:42;102632.88;;;-5.06;77.66
43161;BME280;40968;52.342;5.528;2022-12-18T08:31:09;102710.41;;;-4.63;77.58
43161;BME280;40968;52.342;5.528;2022-12-18T08:33:38;102411.16;;;-6.23;77.14
43161;BME280;40968;52.342;5.528;2022-12-18T08:36:06;102319.63;;;-6.75;77.31
43161;BME280;40968;52.342;5.528;2022-12-18T08:38:33;102686.13;;;-4.56;76.83
43161;BME280;40968;52.342;5.528;2022-12-18T08:41:00;102671.03;;;-4.71;76.88
43161;BME280;40968;52.342;5.528;2022-12-18T08:43:27;102696.75;;;-4.47;76.65
43161;BME280;40968;52.342;5.528;2022-12-18T08:46:11;102659.72;;;-4.69;76.33
43161;BME280;40968;52.342;5.528;2022-12-18T08:48:42;102720.69;;;-4.27;76.54
43161;BME280;40968;52.342;5.528;2022-12-18T08:51:09;102655.50;;;-4.62;76.51
43161;BME280;40968;52.342;5.528;2022-12-18T08:53:35;102718.13;;;-4.22;76.43
43161;BME280;40968;52.342;5.528;2022-12-18T08:56:02;102628.25;;;-4.72;76.18
43161;BME280;40968;52.342;5.528;2022-12-18T08:58:29;102665.25;;;-4.53;76.28
43161;BME280;40968;52.342;5.528;2022-12-18T09:00:59;102635.41;;;-4.63;76.04
43161;BME280;40968;52.342;5.528;2022-12-18T09:03:26;102458.19;;;-5.76;76.30
43161;BME280;40968;52.342;5.528;2022-12-18T09:05:54;102716.72;;;-4.02;76.17
43161;BME280;40968;52.342;5.528;2022-12-18T09:08:20;102671.13;;;-4.14;76.06
43161;BME280;40968;52.342;5.528;2022-12-18T09:10:49;102694.22;;;-3.90;76.12
43161;BME280;40968;52.342;5.528;2022-12-18T09:13:16;102694.28;;;-3.84;76.00
43161;BME280;40968;52.342;5.528;2022-12-18T09:15:43;102633.56;;;-4.17;75.90
43161;BME280;40968;52.342;5.528;2022-12-18T09:18:11;102425.84;;;-5.32;75.39
43161;BME280;40968;52.342;5.528;2022-12-18T09:20:38;102587.50;;;-4.59;75.96
43161;BME280;40968;52.342;5.528;2022-12-18T09:23:07;102714.66;;;-3.68;75.08
43161;BME280;40968;52.342;5.528;2022-12-18T09:25:35;102604.72;;;-4.18;75.20
43161;BME280;40968;52.342;5.528;2022-12-18T09:28:04;102695.56;;;-3.59;75.20
43161;BME280;40968;52.342;5.528;2022-12-18T09:30:31;102628.63;;;-3.95;75.23
43161;BME280;40968;52.342;5.528;2022-12-18T09:32:59;102684.31;;;-3.50;74.71
43161;BME280;40968;52.342;5.528;2022-12-18T09:35:26;102671.97;;;-3.57;74.90
43161;BME280;40968;52.342;5.528;2022-12-18T09:37:53;102627.94;;;-3.81;75.04
43161;BME280;40968;52.342;5.528;2022-12-18T09:40:23;102697.59;;;-3.39;75.08
43161;BME280;40968;52.342;5.528;2022-12-18T09:42:54;102636.84;;;-3.72;74.91
43161;BME280;40968;52.342;5.528;2022-12-18T09:45:24;102688.00;;;-3.36;74.46
43161;BME280;40968;52.342;5.528;2022-12-18T09:47:52;102686.31;;;-3.30;75.00
43161;BME280;40968;52.342;5.528;2022-12-18T09:50:24;102445.31;;;-4.59;75.02
43161;BME280;40968;52.342;5.528;2022-12-18T09:52:56;102641.63;;;-3.38;75.38
43161;BME280;40968;52.342;5.528;2022-12-18T09:55:28;102638.16;;;-3.37;75.29
43161;BME280;40968;52.342;5.528;2022-12-18T09:58:00;102557.16;;;-3.88;75.35
43161;BME280;40968;52.342;5.528;2022-12-18T10:00:29;102576.56;;;-3.73;75.27
43161;BME280;40968;52.342;5.528;2022-12-18T10:03:00;102625.00;;;-3.42;75.38
43161;BME280;40968;52.342;5.528;2022-12-18T10:05:34;102650.59;;;-3.21;75.28
43161;BME280;40968;52.342;5.528;2022-12-18T10:08:07;102648.00;;;-3.19;75.18
43161;BME280;40968;52.342;5.528;2022-12-18T10:10:41;102537.16;;;-3.78;74.93
43161;BME280;40968;52.342;5.528;2022-12-18T10:13:18;102595.28;;;-3.41;75.30
43161;BME280;40968;52.342;5.528;2022-12-18T10:15:54;102634.97;;;-3.13;75.60
43161;BME280;40968;52.342;5.528;2022-12-18T10:18:34;102448.44;;;-4.21;75.44
43161;BME280;40968;52.342;5.528;2022-12-18T10:21:09;102523.16;;;-3.80;75.25
43161;BME280;40968;52.342;5.528;2022-12-18T10:23:44;102487.22;;;-3.92;75.58
43161;BME280;40968;52.342;5.528;2022-12-18T10:26:17;102380.97;;;-4.42;75.57
43161;BME280;40968;52.342;5.528;2022-12-18T10:28:44;102622.00;;;-2.97;75.02
43161;BME280;40968;52.342;5.528;2022-12-18T10:31:15;102286.25;;;-4.84;74.46
43161;BME280;40968;52.342;5.528;2022-12-18T10:33:43;102454.22;;;-3.76;73.89
43161;BME280;40968;52.342;5.528;2022-12-18T10:36:10;102606.38;;;-2.85;73.94
43161;BME280;40968;52.342;5.528;2022-12-18T10:38:37;102478.94;;;-3.54;73.60
43161;BME280;40968;52.342;5.528;2022-12-18T10:41:05;102558.06;;;-3.07;73.63
43161;BME280;40968;52.342;5.528;2022-12-18T10:43:36;102600.38;;;-2.73;72.97
43161;BME280;40968;52.342;5.528;2022-12-18T10:46:14;102596.03;;;-2.70;72.92
43161;BME280;40968;52.342;5.528;2022-12-18T10:48:53;102508.03;;;-3.27;72.29
43161;BME280;40968;52.342;5.528;2022-12-18T10:51:23;102625.78;;;-2.68;72.31
43161;BME280;40968;52.342;5.528;2022-12-18T10:53:54;102514.16;;;-3.27;72.13
43161;BME280;40968;52.342;5.528;2022-12-18T10:56:22;102559.06;;;-2.94;72.35
43161;BME280;40968;52.342;5.528;2022-12-18T10:59:00;102559.16;;;-2.85;71.57
43161;BME280;40968;52.342;5.528;2022-12-18T11:01:28;102247.19;;;-4.68;71.97
43161;BME280;40968;52.342;5.528;2022-12-18T11:04:04;102464.22;;;-3.38;71.99
43161;BME280;40968;52.342;5.528;2022-12-18T11:06:33;102590.09;;;-2.48;72.15
43161;BME280;40968;52.342;5.528;2022-12-18T11:09:02;102586.59;;;-2.47;72.08
43161;BME280;40968;52.342;5.528;2022-12-18T11:11:31;102372.97;;;-3.77;71.43
43161;BME280;40968;52.342;5.528;2022-12-18T11:14:02;102473.19;;;-3.14;71.75
43161;BME280;40968;52.342;5.528;2022-12-18T11:16:33;102582.28;;;-2.41;71.62
43161;BME280;40968;52.342;5.528;2022-12-18T11:19:17;102565.66;;;-2.37;71.74
43161;BME280;40968;52.342;5.528;2022-12-18T11:21:47;102557.81;;;-2.34;71.98
43161;BME280;40968;52.342;5.528;2022-12-18T11:24:20;102552.59;;;-2.30;71.69
43161;BME280;40968;52.342;5.528;2022-12-18T11:26:47;102563.97;;;-2.30;71.20
43161;BME280;40968;52.342;5.528;2022-12-18T11:29:19;102543.84;;;-2.26;71.38
43161;BME280;40968;52.342;5.528;2022-12-18T11:31:49;102555.25;;;-2.23;71.10
43161;BME280;40968;52.342;5.528;2022-12-18T11:34:22;102574.53;;;-2.19;71.06
43161;BME280;40968;52.342;5.528;2022-12-18T11:36:53;102496.38;;;-2.54;69.82
43161;BME280;40968;52.342;5.528;2022-12-18T11:39:26;102561.44;;;-2.13;70.29
43161;BME280;40968;52.342;5.528;2022-12-18T11:42:01;102439.28;;;-2.88;70.25
43161;BME280;40968;52.342;5.528;2022-12-18T11:44:42;102508.81;;;-2.28;70.46
43161;BME280;40968;52.342;5.528;2022-12-18T11:47:22;102554.53;;;-2.02;69.74
43161;BME280;40968;52.342;5.528;2022-12-18T11:49:52;102263.03;;;-3.63;70.01
43161;BME280;40968;52.342;5.528;2022-12-18T11:52:24;102550.16;;;-1.93;70.11
43161;BME280;40968;52.342;5.528;2022-12-18T11:54:53;102499.22;;;-2.22;70.28
43161;BME280;40968;52.342;5.528;2022-12-18T11:57:31;102234.19;;;-3.67;69.73
43161;BME280;40968;52.342;5.528;2022-12-18T12:00:04;102458.94;;;-2.22;70.05
43161;BME280;40968;52.342;5.528;2022-12-18T12:02:53;102408.97;;;-2.41;70.01
43161;BME280;40968;52.342;5.528;2022-12-18T12:05:37;102509.06;;;-1.82;69.17
43161;BME280;40968;52.342;5.528;2022-12-18T12:08:13;102383.53;;;-2.46;68.91
43161;BME280;40968;52.342;5.528;2022-12-18T12:10:50;102244.94;;;-3.23;69.07
43161;BME280;40968;52.342;5.528;2022-12-18T12:13:35;102386.19;;;-2.37;68.92
43161;BME280;40968;52.342;5.528;2022-12-18T12:16:13;102480.19;;;-1.73;69.59
43161;BME280;40968;52.342;5.528;2022-12-18T12:18:51;102430.13;;;-2.05;69.43
43161;BME280;40968;52.342;5.528;2022-12-18T12:21:24;102429.25;;;-2.04;69.06
43161;BME280;40968;52.342;5.528;2022-12-18T12:23:58;102248.53;;;-3.09;69.02
43161;BME280;40968;52.342;5.528;2022-12-18T12:26:34;102358.16;;;-2.40;69.18
43161;BME280;40968;52.342;5.528;2022-12-18T12:29:13;102396.81;;;-2.11;69.00
43161;BME280;40968;52.342;5.528;2022-12-18T12:32:00;102431.03;;;-1.89;69.13
43161;BME280;40968;52.342;5.528;2022-12-18T12:34:34;102453.88;;;-1.70;69.34
43161;BME280;40968;52.342;5.528;2022-12-18T12:37:15;102153.09;;;-3.39;69.15
43161;BME280;40968;52.342;5.528;2022-12-18T12:39:46;102119.81;;;-3.52;68.92
43161;BME280;40968;52.342;5.528;2022-12-18T12:42:20;102350.38;;;-2.17;68.48
43161;BME280;40968;52.342;5.528;2022-12-18T12:45:16;102458.31;;;-1.47;68.65
43161;BME280;40968;52.342;5.528;2022-12-18T12:47:47;102346.91;;;-2.08;68.62
43161;BME280;40968;52.342;5.528;2022-12-18T12:50:17;102285.56;;;-2.31;68.81
43161;BME280;40968;52.342;5.528;2022-12-18T12:52:47;102331.13;;;-2.05;68.68
43161;BME280;40968;52.342;5.528;2022-12-18T12:55:18;102218.03;;;-2.73;68.19
43161;BME280;40968;52.342;5.528;2022-12-18T12:57:54;102443.44;;;-1.36;68.93
43161;BME280;40968;52.342;5.528;2022-12-18T13:00:22;102315.38;;;-2.08;68.50
43161;BME280;40968;52.342;5.528;2022-12-18T13:02:59;102318.00;;;-2.05;67.99
43161;BME280;40968;52.342;5.528;2022-12-18T13:05:33;102263.63;;;-2.43;68.77